Time;durP1;ratioP1;P1;durP2;ratioP2;P2;SDS_P1;SDS_P2;PMS_P1;PMS_P2;Temp;Humidity;BMP_temperature;BMP_pressure;BME280_temperature;BME280_humidity;BME280_pressure;Samples;Min_cycle;Max_cycle;Signal;HPM_P1;HPM_P2
2022/01/28 00:01:44;;;;;;;12.55;2.05;;;5.00;99.90;;;;;;5024231;28;20045;-91
2022/01/28 00:04:15;;;;;;;9.35;1.67;;;5.10;99.90;;;;;;5035617;28;20029;-91
2022/01/28 00:06:41;;;;;;;12.05;1.70;;;5.00;99.90;;;;;;5034466;28;20032;-88
2022/01/28 00:09:07;;;;;;;14.40;2.20;;;5.10;99.90;;;;;;5026703;28;20085;-92
2022/01/28 00:11:33;;;;;;;10.65;1.95;;;5.00;99.90;;;;;;5016535;28;20025;-89
2022/01/28 00:14:14;;;;;;;12.70;1.98;;;5.00;99.90;;;;;;5016568;28;20474;-90
2022/01/28 00:19:51;;;;;;;7.28;1.70;;;4.90;99.90;;;;;;5035468;28;20515;-91
2022/01/28 00:38:29;;;;;;;13.15;1.58;;;4.70;99.90;;;;;;5026488;28;20056;-88
2022/01/28 00:40:55;;;;;;;14.07;2.42;;;4.70;99.90;;;;;;5008208;28;20172;-90
2022/01/28 00:43:21;;;;;;;8.52;1.73;;;4.60;99.90;;;;;;5032312;28;20093;-91
2022/01/28 00:45:47;;;;;;;11.90;1.95;;;4.60;99.90;;;;;;5016779;28;20120;-88
2022/01/28 00:48:13;;;;;;;7.72;1.30;;;4.60;99.90;;;;;;5015379;28;20510;-88
2022/01/28 00:50:41;;;;;;;13.80;1.73;;;4.60;99.90;;;;;;5033300;28;20082;-86
2022/01/28 00:53:07;;;;;;;7.00;1.85;;;4.60;99.90;;;;;;5016733;28;20029;-90
2022/01/28 00:55:33;;;;;;;9.13;1.42;;;4.50;99.90;;;;;;5033525;28;20457;-90
2022/01/28 00:57:58;;;;;;;7.32;1.45;;;4.50;99.90;;;;;;5023953;28;20039;-90
2022/01/28 01:00:24;;;;;;;10.85;1.50;;;4.40;99.90;;;;;;5017782;28;20064;-89
2022/01/28 01:02:50;;;;;;;9.88;2.20;;;4.50;99.90;;;;;;5034653;28;20087;-88
2022/01/28 01:05:15;;;;;;;7.55;1.40;;;4.40;99.90;;;;;;4999561;28;20044;-89
2022/01/28 01:07:41;;;;;;;8.40;1.10;;;4.40;99.90;;;;;;5021143;28;20663;-89
2022/01/28 01:10:10;;;;;;;6.13;1.13;;;4.40;99.90;;;;;;5036011;28;20033;-91
2022/01/28 01:12:42;;;;;;;9.70;1.77;;;4.40;99.90;;;;;;5027175;28;20039;-89
2022/01/28 01:15:10;;;;;;;8.05;1.25;;;4.30;99.90;;;;;;5035442;28;20037;-91
2022/01/28 01:17:42;;;;;;;11.10;1.90;;;4.40;99.90;;;;;;5030765;28;20025;-89
2022/01/28 01:22:39;;;;;;;17.70;2.00;;;4.30;99.90;;;;;;5051456;28;20060;-84
2022/01/28 01:25:16;;;;;;;10.07;2.22;;;4.30;99.90;;;;;;5047877;28;20025;-87
2022/01/28 01:27:42;;;;;;;11.50;2.53;;;4.30;99.90;;;;;;5031170;28;20017;-84
2022/01/28 01:30:09;;;;;;;8.00;1.45;;;4.30;99.90;;;;;;5023518;28;20085;-88
2022/01/28 01:32:34;;;;;;;9.60;1.55;;;4.30;99.90;;;;;;5026492;28;20033;-89
2022/01/28 01:35:00;;;;;;;6.55;1.42;;;4.30;99.90;;;;;;5033425;28;20033;-89
2022/01/28 01:37:25;;;;;;;13.18;2.22;;;4.30;99.90;;;;;;5033790;28;20032;-89
2022/01/28 01:39:52;;;;;;;10.10;1.60;;;4.30;99.90;;;;;;5038529;28;20395;-89
2022/01/28 01:42:36;;;;;;;14.45;2.25;;;4.30;99.90;;;;;;5028273;28;20017;-85
2022/01/28 01:53:22;;;;;;;8.98;2.03;;;4.40;99.90;;;;;;5060009;28;20032;-87
2022/01/28 01:55:48;;;;;;;9.88;1.85;;;4.40;99.90;;;;;;5054819;28;20025;-89
2022/01/28 01:58:14;;;;;;;8.95;1.60;;;4.40;99.90;;;;;;5042619;28;20083;-89
2022/01/28 02:00:39;;;;;;;8.38;1.70;;;4.40;99.90;;;;;;5038441;28;20025;-91
2022/01/28 02:03:05;;;;;;;8.40;1.73;;;4.40;99.90;;;;;;5050434;28;20309;-88
2022/01/28 02:05:30;;;;;;;8.93;1.23;;;4.40;99.90;;;;;;5038538;28;20029;-89
2022/01/28 02:08:05;;;;;;;10.07;1.58;;;4.30;99.90;;;;;;5022466;28;20029;-90
2022/01/28 02:10:32;;;;;;;8.23;1.33;;;4.20;99.90;;;;;;5020753;28;20149;-89
2022/01/28 02:12:59;;;;;;;10.80;1.63;;;4.20;99.90;;;;;;5030760;28;20026;-88
2022/01/28 02:15:26;;;;;;;7.40;1.60;;;4.20;99.90;;;;;;5032851;28;20622;-89
2022/01/28 02:17:52;;;;;;;11.95;2.15;;;4.20;99.90;;;;;;5020194;28;20022;-90
2022/01/28 02:20:23;;;;;;;6.07;1.23;;;4.20;99.90;;;;;;5022437;28;20029;-89
2022/01/28 02:22:48;;;;;;;12.70;1.85;;;4.20;99.90;;;;;;5028984;28;20423;-86
2022/01/28 02:25:22;;;;;;;8.75;1.25;;;4.30;99.90;;;;;;5049194;28;20034;-89
2022/01/28 02:27:48;;;;;;;9.68;1.65;;;4.30;99.90;;;;;;5018098;28;20184;-90
2022/01/28 02:30:14;;;;;;;7.82;1.27;;;4.30;99.90;;;;;;5030511;28;20125;-90
2022/01/28 02:32:39;;;;;;;9.75;1.35;;;4.40;99.90;;;;;;5024831;28;20025;-90
2022/01/28 02:35:06;;;;;;;7.55;1.35;;;4.30;99.90;;;;;;5015193;28;20032;-90
2022/01/28 02:37:31;;;;;;;8.32;1.25;;;4.30;99.90;;;;;;5013716;28;20399;-90
2022/01/28 02:39:57;;;;;;;11.13;2.75;;;4.30;99.90;;;;;;5014356;28;20029;-90
2022/01/28 02:42:38;;;;;;;6.82;1.33;;;4.30;99.90;;;;;;5021136;28;20048;-92
2022/01/28 02:45:04;;;;;;;5.38;1.13;;;4.30;99.90;;;;;;5019602;28;20136;-88
2022/01/28 02:47:36;;;;;;;9.02;1.27;;;4.30;99.90;;;;;;5029866;28;20045;-88
2022/01/28 02:50:03;;;;;;;8.68;2.20;;;4.30;99.90;;;;;;5016873;28;20080;-87
2022/01/28 02:52:38;;;;;;;7.40;1.30;;;4.20;99.90;;;;;;5017242;28;20020;-86
2022/01/28 02:55:10;;;;;;;7.57;1.40;;;4.20;99.90;;;;;;5018547;28;20029;-88
2022/01/28 02:57:39;;;;;;;4.97;1.23;;;4.20;99.90;;;;;;5027580;28;20029;-88
2022/01/28 03:00:05;;;;;;;4.68;1.20;;;4.10;99.90;;;;;;5035445;28;20087;-89
2022/01/28 03:02:31;;;;;;;11.73;1.42;;;4.10;99.90;;;;;;5038044;28;20175;-88
2022/01/28 03:07:27;;;;;;;5.63;1.25;;;4.00;99.90;;;;;;5037630;28;20075;-89
2022/01/28 03:12:47;;;;;;;11.18;1.30;;;4.00;99.90;;;;;;5037473;28;20025;-88
2022/01/28 03:15:19;;;;;;;8.38;1.65;;;4.00;99.90;;;;;;5019553;28;20037;-89
2022/01/28 03:17:55;;;;;;;4.47;1.20;;;4.00;99.90;;;;;;5019804;28;20033;-88
2022/01/28 03:22:47;;;;;;;5.90;1.42;;;4.00;99.90;;;;;;5038480;28;20029;-88
2022/01/28 03:25:14;;;;;;;9.48;1.50;;;4.10;99.90;;;;;;5018961;28;20022;-89
2022/01/28 03:27:54;;;;;;;10.75;1.58;;;4.10;99.90;;;;;;5019168;28;20029;-89
2022/01/28 03:30:21;;;;;;;7.97;1.40;;;4.20;99.90;;;;;;5036185;28;20049;-89
2022/01/28 03:32:46;;;;;;;5.03;1.23;;;4.30;99.90;;;;;;5024183;28;20017;-88
2022/01/28 03:35:15;;;;;;;9.02;1.83;;;4.30;99.90;;;;;;5037225;28;20482;-88
2022/01/28 03:37:41;;;;;;;6.68;1.73;;;4.30;99.90;;;;;;5036129;28;20029;-88
2022/01/28 03:40:08;;;;;;;6.28;1.00;;;4.20;99.90;;;;;;5037097;28;20058;-88
2022/01/28 03:42:34;;;;;;;6.50;1.15;;;4.20;99.90;;;;;;5022038;28;20029;-88
2022/01/28 03:45:01;;;;;;;5.47;1.20;;;4.10;99.90;;;;;;5030962;28;20041;-89
2022/01/28 03:47:26;;;;;;;4.57;0.93;;;4.10;99.90;;;;;;5028957;28;20383;-89
2022/01/28 03:49:52;;;;;;;14.18;1.55;;;4.00;99.90;;;;;;5037145;28;20025;-88
2022/01/28 03:52:18;;;;;;;9.55;1.95;;;4.00;99.90;;;;;;5019529;28;20041;-89
2022/01/28 03:54:44;;;;;;;9.43;1.17;;;4.00;99.90;;;;;;5046005;28;20368;-86
2022/01/28 03:57:09;;;;;;;7.65;1.30;;;3.90;99.90;;;;;;5041336;28;20093;-88
2022/01/28 03:59:35;;;;;;;8.63;1.55;;;3.90;99.90;;;;;;5029539;28;20041;-87
2022/01/28 04:02:05;;;;;;;7.20;1.65;;;3.90;99.90;;;;;;5050783;28;20021;-91
2022/01/28 04:05:27;;;;;;;13.60;1.85;;;4.00;99.90;;;;;;5056640;28;20014;-86
2022/01/28 04:12:45;;;;;;;10.25;1.80;;;3.90;99.90;;;;;;5037224;28;20220;-88
2022/01/28 04:16:04;;;;;;;9.40;1.50;;;4.00;99.90;;;;;;5035207;28;20099;-90
2022/01/28 04:18:00;;;;;;;7.88;1.88;;;3.90;99.90;;;;;;5030876;28;20057;-92
2022/01/28 04:20:25;;;;;;;6.40;1.20;;;4.00;99.90;;;;;;5035850;28;20028;-90
2022/01/28 04:22:51;;;;;;;8.02;1.48;;;3.90;99.90;;;;;;5036430;28;20371;-91
2022/01/28 04:25:20;;;;;;;10.30;1.50;;;3.90;99.90;;;;;;5018575;28;20030;-91
2022/01/28 04:27:45;;;;;;;12.98;1.70;;;3.90;99.90;;;;;;5036031;28;20045;-91
2022/01/28 04:30:11;;;;;;;7.22;1.77;;;3.90;99.90;;;;;;5017997;28;20056;-89
2022/01/28 04:32:38;;;;;;;9.27;1.30;;;3.80;99.90;;;;;;5031771;28;20112;-89
2022/01/28 04:35:04;;;;;;;5.88;1.10;;;3.80;99.90;;;;;;5023963;28;20032;-89
2022/01/28 04:37:54;;;;;;;8.63;1.15;;;3.80;99.90;;;;;;5034570;28;20079;-89
2022/01/28 04:40:27;;;;;;;5.95;1.15;;;3.80;99.90;;;;;;5015955;28;20097;-89
2022/01/28 04:48:31;;;;;;;6.43;1.02;;;3.70;99.90;;;;;;4991083;28;20017;-89
2022/01/28 04:51:11;;;;;;;7.22;1.20;;;3.60;99.90;;;;;;5028781;28;20114;-90
2022/01/28 04:57:08;;;;;;;7.32;1.50;;;3.60;99.90;;;;;;5035817;28;20033;-89
2022/01/28 04:59:26;;;;;;;8.02;1.33;;;3.60;99.90;;;;;;5029505;28;20124;-90
2022/01/28 05:15:20;;;;;;;9.80;1.40;;;3.50;99.90;;;;;;5035463;28;20049;-92
2022/01/28 05:28:36;;;;;;;6.50;0.93;;;3.30;99.90;;;;;;5035579;28;20060;-91
2022/01/28 05:31:02;;;;;;;4.20;1.10;;;3.30;99.90;;;;;;5034360;28;20037;-90
2022/01/28 05:33:27;;;;;;;6.05;0.75;;;3.20;99.90;;;;;;5021644;28;20109;-90
2022/01/28 05:35:53;;;;;;;4.40;1.00;;;3.20;99.90;;;;;;5033859;28;20026;-90
2022/01/28 05:38:19;;;;;;;4.15;0.90;;;3.10;99.90;;;;;;5017510;28;20032;-89
2022/01/28 05:40:44;;;;;;;5.55;1.00;;;3.10;99.90;;;;;;5023703;28;20025;-91
2022/01/28 05:43:10;;;;;;;8.45;1.10;;;3.10;99.90;;;;;;5054211;28;20036;-91
2022/01/28 05:45:35;;;;;;;5.53;1.17;;;3.10;99.90;;;;;;5022992;28;20045;-90
2022/01/28 05:48:01;;;;;;;6.03;1.17;;;3.20;99.90;;;;;;5017103;28;20047;-91
2022/01/28 05:50:27;;;;;;;5.43;0.85;;;3.20;99.90;;;;;;5031627;28;20024;-87
2022/01/28 05:52:52;;;;;;;8.40;1.13;;;3.10;99.90;;;;;;5038264;28;20068;-87
2022/01/28 05:55:18;;;;;;;7.72;1.73;;;3.10;99.90;;;;;;5034540;28;20084;-86
2022/01/28 05:57:44;;;;;;;7.97;1.38;;;3.10;99.90;;;;;;5024100;28;20422;-87
2022/01/28 06:00:10;;;;;;;5.75;1.15;;;3.20;99.90;;;;;;5018299;28;20049;-89
2022/01/28 06:02:36;;;;;;;3.35;1.02;;;3.20;99.90;;;;;;5021669;28;20021;-86
2022/01/28 06:05:02;;;;;;;6.15;1.05;;;3.10;99.90;;;;;;5037107;28;20048;-86
2022/01/28 06:07:28;;;;;;;6.95;1.10;;;3.20;99.90;;;;;;5032987;28;20026;-87
2022/01/28 06:09:53;;;;;;;6.97;1.20;;;3.30;99.90;;;;;;5022494;28;20091;-88
2022/01/28 06:12:20;;;;;;;5.50;1.20;;;3.40;99.90;;;;;;5022673;28;20493;-89
2022/01/28 06:14:46;;;;;;;6.45;1.27;;;3.50;99.90;;;;;;5030378;28;20115;-90
2022/01/28 06:17:11;;;;;;;2.47;0.73;;;3.50;99.90;;;;;;5014932;28;20030;-89
2022/01/28 06:19:37;;;;;;;5.03;1.15;;;3.60;99.90;;;;;;5038646;28;20025;-88
2022/01/28 06:22:03;;;;;;;3.03;0.90;;;3.60;99.90;;;;;;5051238;28;20021;-88
2022/01/28 06:24:29;;;;;;;9.52;1.33;;;3.70;99.90;;;;;;5008630;28;20064;-88
2022/01/28 06:26:55;;;;;;;12.13;1.80;;;3.70;99.90;;;;;;5031517;28;20110;-89
2022/01/28 06:29:20;;;;;;;5.28;1.75;;;3.70;99.90;;;;;;5031027;28;20041;-88
2022/01/28 06:31:47;;;;;;;6.32;1.48;;;3.80;99.90;;;;;;5023488;28;20025;-89
2022/01/28 06:34:13;;;;;;;13.07;1.60;;;3.80;99.90;;;;;;5036567;28;20036;-87
2022/01/28 06:36:39;;;;;;;12.70;1.90;;;3.80;99.90;;;;;;5024296;28;20382;-89
2022/01/28 06:39:05;;;;;;;8.35;1.45;;;3.90;99.90;;;;;;5047097;28;20025;-89
2022/01/28 06:41:30;;;;;;;9.63;1.73;;;3.90;99.90;;;;;;5044778;28;20098;-88
2022/01/28 06:43:57;;;;;;;9.65;1.48;;;3.90;99.90;;;;;;5036565;28;20085;-87
2022/01/28 06:46:24;;;;;;;10.30;1.70;;;3.90;99.90;;;;;;5046522;28;20025;-90
2022/01/28 06:48:50;;;;;;;6.32;1.20;;;4.00;99.90;;;;;;5025523;28;20044;-86
2022/01/28 06:51:16;;;;;;;12.15;1.75;;;3.90;99.90;;;;;;5041332;28;20029;-90
2022/01/28 06:53:42;;;;;;;9.65;2.03;;;3.90;99.90;;;;;;5025847;28;20064;-89
2022/01/28 06:56:07;;;;;;;11.63;1.85;;;4.00;99.90;;;;;;5051074;28;20518;-89
2022/01/28 06:58:33;;;;;;;16.45;2.08;;;4.00;99.90;;;;;;5039424;28;20033;-90
2022/01/28 07:00:59;;;;;;;7.18;1.50;;;3.90;99.90;;;;;;5030742;28;20103;-89
2022/01/28 07:03:25;;;;;;;6.70;1.40;;;3.80;99.90;;;;;;5032001;28;20032;-90
2022/01/28 07:05:51;;;;;;;7.65;1.10;;;3.80;99.90;;;;;;5057800;28;20028;-89
2022/01/28 07:08:17;;;;;;;8.20;1.60;;;3.60;99.90;;;;;;5034987;28;20021;-88
2022/01/28 07:10:42;;;;;;;5.95;1.40;;;3.60;99.90;;;;;;5023975;28;20136;-88
2022/01/28 07:13:08;;;;;;;7.03;1.50;;;3.50;99.90;;;;;;5037923;28;20025;-90
2022/01/28 07:15:34;;;;;;;5.10;1.20;;;3.40;99.90;;;;;;5037371;28;20099;-86
2022/01/28 07:18:02;;;;;;;6.88;1.70;;;3.40;99.90;;;;;;5018935;28;20025;-89
2022/01/28 07:20:31;;;;;;;8.13;1.63;;;3.30;99.90;;;;;;5018220;28;20022;-90
2022/01/28 07:22:58;;;;;;;6.97;1.50;;;3.30;99.90;;;;;;5018089;28;20022;-88
2022/01/28 07:25:23;;;;;;;4.85;1.00;;;3.30;99.90;;;;;;5021773;28;20546;-89
2022/01/28 07:27:49;;;;;;;5.03;1.17;;;3.30;99.90;;;;;;5019455;28;20017;-89
2022/01/28 07:30:15;;;;;;;3.03;0.73;;;3.30;99.90;;;;;;5017141;28;20053;-88
2022/01/28 07:32:41;;;;;;;6.15;1.33;;;3.30;99.90;;;;;;5021385;28;20494;-90
2022/01/28 07:35:08;;;;;;;7.72;1.20;;;3.30;99.90;;;;;;5020025;28;20777;-87
2022/01/28 07:37:33;;;;;;;5.75;1.00;;;3.20;99.90;;;;;;5018380;28;20040;-89
2022/01/28 07:40:02;;;;;;;4.50;0.95;;;3.20;99.90;;;;;;5023626;28;20021;-91
2022/01/28 07:42:32;;;;;;;6.35;1.60;;;3.20;99.90;;;;;;5025744;28;20104;-90
2022/01/28 07:44:58;;;;;;;5.88;1.00;;;3.30;99.90;;;;;;5020946;28;20403;-89
2022/01/28 07:47:23;;;;;;;4.28;1.02;;;3.40;99.90;;;;;;5019826;28;20026;-90
2022/01/28 07:49:49;;;;;;;4.72;1.20;;;3.40;99.90;;;;;;5031256;28;20018;-87
2022/01/28 07:52:15;;;;;;;9.32;1.48;;;3.50;99.90;;;;;;5043569;28;20025;-91
2022/01/28 07:54:46;;;;;;;6.30;1.40;;;3.60;99.90;;;;;;5041190;28;20029;-88
2022/01/28 07:57:16;;;;;;;11.35;2.75;;;3.60;99.90;;;;;;5067356;28;20025;-88
2022/01/28 07:59:56;;;;;;;7.95;1.30;;;3.60;99.90;;;;;;5068633;28;20052;-88
2022/01/28 08:02:22;;;;;;;5.97;1.42;;;3.60;99.90;;;;;;5046846;28;20033;-91
2022/01/28 08:04:48;;;;;;;9.77;1.65;;;3.60;99.90;;;;;;5042475;28;20099;-89
2022/01/28 08:07:14;;;;;;;6.78;1.48;;;3.60;99.90;;;;;;5051963;28;20032;-86
2022/01/28 08:09:39;;;;;;;5.38;1.40;;;3.60;99.90;;;;;;5042548;28;20034;-86
2022/01/28 08:12:06;;;;;;;5.28;1.50;;;3.50;99.90;;;;;;5030315;28;20014;-90
2022/01/28 08:14:32;;;;;;;5.05;1.20;;;3.40;99.90;;;;;;5031697;28;20487;-87
2022/01/28 08:16:59;;;;;;;7.65;1.90;;;3.40;99.90;;;;;;5014998;28;20141;-90
2022/01/28 08:19:25;;;;;;;7.78;2.00;;;3.30;99.90;;;;;;5038135;28;20025;-91
2022/01/28 08:21:51;;;;;;;5.70;1.40;;;3.30;99.90;;;;;;5010458;28;20108;-87
2022/01/28 08:24:17;;;;;;;5.32;1.20;;;3.30;99.90;;;;;;5021095;28;20512;-88
2022/01/28 08:26:42;;;;;;;3.97;1.08;;;3.30;99.90;;;;;;5021208;28;20049;-89
2022/01/28 08:29:08;;;;;;;7.95;1.73;;;3.30;99.90;;;;;;5043587;28;20101;-88
2022/01/28 08:31:35;;;;;;;6.28;1.40;;;3.30;99.90;;;;;;5045244;28;20091;-90
2022/01/28 08:34:01;;;;;;;8.80;2.00;;;3.30;99.90;;;;;;5046585;28;20021;-87
2022/01/28 08:36:27;;;;;;;7.72;1.60;;;3.30;99.90;;;;;;5026389;28;20013;-88
2022/01/28 08:38:55;;;;;;;5.20;1.63;;;3.40;99.90;;;;;;5038368;28;20059;-90
2022/01/28 08:41:22;;;;;;;10.57;2.00;;;3.40;99.90;;;;;;5052315;28;20014;-89
2022/01/28 08:43:49;;;;;;;9.68;1.90;;;3.50;99.90;;;;;;5031707;28;20030;-86
2022/01/28 08:46:16;;;;;;;6.75;1.40;;;3.50;99.90;;;;;;5028015;28;20034;-85
2022/01/28 08:48:44;;;;;;;4.25;1.83;;;3.60;99.90;;;;;;5044678;28;20022;-89
2022/01/28 08:51:09;;;;;;;9.13;2.72;;;3.70;99.90;;;;;;5028879;28;20025;-86
2022/01/28 08:53:37;;;;;;;10.35;2.72;;;3.80;99.90;;;;;;5062282;28;20036;-85
2022/01/28 08:56:03;;;;;;;10.68;3.42;;;3.80;99.90;;;;;;5046767;28;20025;-87
2022/01/28 08:58:28;;;;;;;12.70;3.38;;;4.00;99.90;;;;;;5063619;28;20021;-87
2022/01/28 09:00:55;;;;;;;11.90;3.35;;;4.10;99.90;;;;;;5030717;28;20079;-85
2022/01/28 09:03:22;;;;;;;12.07;2.67;;;4.20;99.90;;;;;;5049287;28;20021;-84
2022/01/28 09:05:55;;;;;;;18.85;4.32;;;4.30;99.90;;;;;;5069136;28;20025;-84
2022/01/28 09:08:21;;;;;;;16.67;3.13;;;4.30;99.90;;;;;;5048135;28;20060;-86
2022/01/28 09:10:57;;;;;;;14.32;4.38;;;4.40;99.90;;;;;;5044533;28;20032;-87
2022/01/28 09:13:37;;;;;;;14.07;2.92;;;4.50;99.90;;;;;;5035739;28;20030;-89
2022/01/28 09:16:06;;;;;;;9.60;2.42;;;4.70;99.90;;;;;;5021454;28;20033;-87
2022/01/28 09:18:31;;;;;;;11.32;2.80;;;5.30;99.90;;;;;;5036903;28;20026;-86
2022/01/28 09:21:04;;;;;;;11.75;2.58;;;6.50;99.90;;;;;;5047309;28;20025;-88
2022/01/28 09:23:30;;;;;;;13.82;2.55;;;7.80;99.90;;;;;;5002749;28;20109;-86
2022/01/28 09:25:57;;;;;;;7.70;2.13;;;8.90;99.90;;;;;;5032243;28;20073;-86
2022/01/28 09:28:24;;;;;;;12.82;2.47;;;9.70;99.90;;;;;;5028242;28;20049;-87
2022/01/28 09:30:52;;;;;;;15.75;2.97;;;10.20;99.90;;;;;;5054291;28;20150;-87
2022/01/28 09:33:20;;;;;;;14.10;2.55;;;10.60;99.90;;;;;;5058274;28;20001;-86
2022/01/28 09:35:46;;;;;;;11.43;2.55;;;11.10;99.90;;;;;;5040756;28;20093;-86
2022/01/28 09:38:13;;;;;;;8.90;2.25;;;11.60;99.90;;;;;;5040079;28;20013;-89
2022/01/28 09:40:39;;;;;;;8.55;2.25;;;12.10;99.90;;;;;;5027119;28;20022;-85
2022/01/28 09:43:09;;;;;;;11.10;3.00;;;12.40;99.90;;;;;;5051186;28;20017;-86
2022/01/28 09:45:36;;;;;;;12.57;3.03;;;12.80;99.90;;;;;;5064875;28;20214;-94
2022/01/28 09:48:04;;;;;;;7.25;2.05;;;13.10;99.90;;;;;;5046513;28;20017;-88
2022/01/28 09:50:42;;;;;;;10.45;2.53;;;13.50;99.90;;;;;;5046699;28;20017;-88
2022/01/28 09:53:08;;;;;;;12.23;2.92;;;13.80;99.90;;;;;;5047374;28;20029;-89
2022/01/28 09:55:47;;;;;;;9.88;1.90;;;14.20;99.90;;;;;;5013649;23;20662;-88
2022/01/28 09:58:14;;;;;;;8.60;2.08;;;14.60;99.90;;;;;;5049565;28;20030;-87
2022/01/28 10:00:44;;;;;;;8.77;2.15;;;15.00;99.90;;;;;;5049634;28;20391;-89
2022/01/28 10:03:13;;;;;;;9.57;2.05;;;15.40;99.90;;;;;;5039894;28;20092;-89
